Hanover, PA (17331)

7:17 AM EDT on March 30, 2015 (GMT -0400)
Hanover, PA | | Change Station
CLOSE
Current Station
Personal Weather Station
Location: Hanover, PA
Elevation: 614 ft
Nearby Weather Stations

Elev 614 ft 39.79 °N, 76.98 °W | Updated 2 minutes ago

Overcast
Overcast
38.7 °F
Feels Like 39 °F
N
2.0
Wind Variable Wind from West
Gusts 2.0 mph

Today
High -- | Low -- °F
--% Chance of Precip.
Yesterday
High -- | Low -- °F
Precip. -- in
6:55 AM 7:29 PM
Waxing Gibbous, 79% visible
Pressure 29.89 in
Visibility 10.0 miles
Clouds Mostly Cloudy 4500 ft
Overcast 5500 ft
Windchill 39 °F
Dew Point 26 °F
Humidity 59%
Rainfall 0.00 in
Snow Depth Not available.
UV 0 out of 12
Pollen 7.50 out of 12
Air Quality Not available.
Flu Activity Not available.
METAR KTHV 301053Z AUTO 20008KT 10SM BKN045 OVC055 04/M06 A2987 RMK AO2 SLP121 T00391056

More Conditions Fewer Conditions

Pressure 29.89 in
Visibility 10.0 miles
Clouds Mostly Cloudy 4500 ft
Overcast 5500 ft
Windchill 39 °F
Dew Point 26 °F
Humidity 59%
Rainfall 0.00 in
Snow Depth Not available.
UV 0 out of 12
Pollen 7.50 out of 12
Air Quality Not available.
Flu Activity Not available.
METAR KTHV 301053Z AUTO 20008KT 10SM BKN045 OVC055 04/M06 A2987 RMK AO2 SLP121 T00391056

More Conditions Fewer Conditions

Nowcast | as of 4:15 am EDT on March 30, 2015

Patchy rain and snow will be across the region through 930 am. Little if any snow accumulation is expected. With temperatures mainly above freezing...widespread freezing rain is not expected. However...an isolated icy spot could occur.

×

10-Day Weather Forecast

Almanac

Astronomy

Mar. 30, 2015 Rise Set
Actual Time
Civil Twilight
Nautical Twilight
Astronomical Twilight
Moon
Length of Visible Light
Length of Day
Tomorrow will be .
, % of the Moon is Illuminated

Today's Extremes

State Highs State Lows

Community

WunderPhotos

Upload Photos

1,809,457 photos uploaded!

WunderBlogs® & News

Nearby

Air Quality

  Air Quality AQ Index Pollutant
Not available.

Snow Depth

Station Depth Elevation

Earthquake Activity

City Distance Mag. Time & Date
Minimum magnitude displayed is 2.5.

Coastal Water Temperatures

Place Temperature

Stations

Nearby Weather Stations

Station Location Temp. Windchill Dew Point Humidity Wind Precip. Elev Updated Type